sensor_id;sensor_type;location;lat;lon;timestamp;P1;durP1;ratioP1;P2;durP2;ratioP2
6442;SDS011;3254;47.372;8.512;2023-08-06T00:00:05;3.47;;;3.27;;
6442;SDS011;3254;47.372;8.512;2023-08-06T00:02:31;2.80;;;2.60;;
6442;SDS011;3254;47.372;8.512;2023-08-06T00:04:57;4.30;;;3.23;;
6442;SDS011;3254;47.372;8.512;2023-08-06T00:07:23;4.63;;;3.80;;
6442;SDS011;3254;47.372;8.512;2023-08-06T00:09:48;5.33;;;3.40;;
6442;SDS011;3254;47.372;8.512;2023-08-06T00:12:15;2.80;;;2.40;;
6442;SDS011;3254;47.372;8.512;2023-08-06T00:14:41;9.80;;;3.47;;
6442;SDS011;3254;47.372;8.512;2023-08-06T00:17:10;3.10;;;2.90;;
6442;SDS011;3254;47.372;8.512;2023-08-06T00:19:37;3.50;;;3.20;;
6442;SDS011;3254;47.372;8.512;2023-08-06T00:22:03;4.47;;;3.60;;
6442;SDS011;3254;47.372;8.512;2023-08-06T00:24:33;3.50;;;2.80;;
6442;SDS011;3254;47.372;8.512;2023-08-06T00:27:00;2.90;;;2.70;;
6442;SDS011;3254;47.372;8.512;2023-08-06T00:29:26;3.93;;;2.67;;
6442;SDS011;3254;47.372;8.512;2023-08-06T00:31:52;2.73;;;2.00;;
6442;SDS011;3254;47.372;8.512;2023-08-06T00:34:20;2.30;;;2.20;;
6442;SDS011;3254;47.372;8.512;2023-08-06T00:36:46;3.60;;;2.30;;
6442;SDS011;3254;47.372;8.512;2023-08-06T00:39:11;3.37;;;2.80;;
6442;SDS011;3254;47.372;8.512;2023-08-06T00:41:37;2.10;;;2.00;;
6442;SDS011;3254;47.372;8.512;2023-08-06T00:44:03;5.43;;;2.63;;
6442;SDS011;3254;47.372;8.512;2023-08-06T00:46:29;2.10;;;2.00;;
6442;SDS011;3254;47.372;8.512;2023-08-06T00:48:55;2.27;;;2.17;;
6442;SDS011;3254;47.372;8.512;2023-08-06T00:51:21;3.07;;;2.30;;
6442;SDS011;3254;47.372;8.512;2023-08-06T00:53:48;2.27;;;2.00;;
6442;SDS011;3254;47.372;8.512;2023-08-06T00:56:15;3.53;;;2.10;;
6442;SDS011;3254;47.372;8.512;2023-08-06T00:58:41;2.20;;;2.10;;
6442;SDS011;3254;47.372;8.512;2023-08-06T01:01:07;1.77;;;1.67;;
6442;SDS011;3254;47.372;8.512;2023-08-06T01:03:34;2.03;;;1.93;;
6442;SDS011;3254;47.372;8.512;2023-08-06T01:06:09;3.43;;;2.37;;
6442;SDS011;3254;47.372;8.512;2023-08-06T01:08:54;2.60;;;2.03;;
6442;SDS011;3254;47.372;8.512;2023-08-06T01:11:31;2.00;;;1.90;;
6442;SDS011;3254;47.372;8.512;2023-08-06T01:14:13;2.10;;;1.90;;
6442;SDS011;3254;47.372;8.512;2023-08-06T01:16:49;2.27;;;1.97;;
6442;SDS011;3254;47.372;8.512;2023-08-06T01:19:19;1.90;;;1.70;;
6442;SDS011;3254;47.372;8.512;2023-08-06T01:21:45;1.90;;;1.80;;
6442;SDS011;3254;47.372;8.512;2023-08-06T01:24:11;2.23;;;2.03;;
6442;SDS011;3254;47.372;8.512;2023-08-06T01:30:03;1.90;;;1.80;;
6442;SDS011;3254;47.372;8.512;2023-08-06T01:32:36;3.83;;;2.17;;
6442;SDS011;3254;47.372;8.512;2023-08-06T01:35:08;3.93;;;1.60;;
6442;SDS011;3254;47.372;8.512;2023-08-06T01:37:37;8.43;;;2.07;;
6442;SDS011;3254;47.372;8.512;2023-08-06T01:40:09;3.03;;;1.73;;
6442;SDS011;3254;47.372;8.512;2023-08-06T01:42:36;2.30;;;1.50;;
6442;SDS011;3254;47.372;8.512;2023-08-06T01:45:02;1.60;;;1.50;;
6442;SDS011;3254;47.372;8.512;2023-08-06T01:47:28;1.63;;;1.40;;
6442;SDS011;3254;47.372;8.512;2023-08-06T01:49:54;1.87;;;1.30;;
6442;SDS011;3254;47.372;8.512;2023-08-06T01:52:21;1.50;;;1.40;;
6442;SDS011;3254;47.372;8.512;2023-08-06T01:54:46;1.77;;;1.67;;
6442;SDS011;3254;47.372;8.512;2023-08-06T01:57:12;1.80;;;1.67;;
6442;SDS011;3254;47.372;8.512;2023-08-06T01:59:39;2.10;;;1.87;;
6442;SDS011;3254;47.372;8.512;2023-08-06T02:02:06;2.40;;;1.37;;
6442;SDS011;3254;47.372;8.512;2023-08-06T02:04:31;2.33;;;1.40;;
6442;SDS011;3254;47.372;8.512;2023-08-06T02:06:57;1.50;;;1.40;;
6442;SDS011;3254;47.372;8.512;2023-08-06T02:09:22;1.37;;;1.17;;
6442;SDS011;3254;47.372;8.512;2023-08-06T02:11:48;1.60;;;1.20;;
6442;SDS011;3254;47.372;8.512;2023-08-06T02:14:13;3.63;;;1.60;;
6442;SDS011;3254;47.372;8.512;2023-08-06T02:16:39;2.63;;;1.10;;
6442;SDS011;3254;47.372;8.512;2023-08-06T02:19:04;1.37;;;1.10;;
6442;SDS011;3254;47.372;8.512;2023-08-06T02:21:31;1.40;;;1.30;;
6442;SDS011;3254;47.372;8.512;2023-08-06T02:23:57;1.47;;;1.37;;
6442;SDS011;3254;47.372;8.512;2023-08-06T02:26:22;1.50;;;1.40;;
6442;SDS011;3254;47.372;8.512;2023-08-06T02:28:48;1.20;;;1.10;;
6442;SDS011;3254;47.372;8.512;2023-08-06T02:31:13;1.00;;;0.90;;
6442;SDS011;3254;47.372;8.512;2023-08-06T02:33:39;2.40;;;1.00;;
6442;SDS011;3254;47.372;8.512;2023-08-06T02:36:10;1.50;;;1.40;;
6442;SDS011;3254;47.372;8.512;2023-08-06T02:38:36;1.20;;;1.10;;
6442;SDS011;3254;47.372;8.512;2023-08-06T02:41:02;1.20;;;1.10;;
6442;SDS011;3254;47.372;8.512;2023-08-06T02:43:28;1.30;;;1.10;;
6442;SDS011;3254;47.372;8.512;2023-08-06T02:45:57;2.80;;;1.27;;
6442;SDS011;3254;47.372;8.512;2023-08-06T02:48:26;1.30;;;0.93;;
6442;SDS011;3254;47.372;8.512;2023-08-06T02:50:52;1.30;;;1.10;;
6442;SDS011;3254;47.372;8.512;2023-08-06T02:53:21;1.33;;;1.00;;
6442;SDS011;3254;47.372;8.512;2023-08-06T02:55:47;1.17;;;1.07;;
6442;SDS011;3254;47.372;8.512;2023-08-06T02:58:13;1.17;;;1.07;;
6442;SDS011;3254;47.372;8.512;2023-08-06T03:00:39;1.77;;;1.30;;
6442;SDS011;3254;47.372;8.512;2023-08-06T03:03:05;1.30;;;1.20;;
6442;SDS011;3254;47.372;8.512;2023-08-06T03:05:31;3.07;;;1.60;;
6442;SDS011;3254;47.372;8.512;2023-08-06T03:07:56;1.27;;;1.17;;
6442;SDS011;3254;47.372;8.512;2023-08-06T03:10:22;1.50;;;1.40;;
6442;SDS011;3254;47.372;8.512;2023-08-06T03:12:48;1.57;;;1.37;;
6442;SDS011;3254;47.372;8.512;2023-08-06T03:15:14;1.40;;;1.10;;
6442;SDS011;3254;47.372;8.512;2023-08-06T03:17:39;1.40;;;1.20;;
6442;SDS011;3254;47.372;8.512;2023-08-06T03:20:05;1.70;;;1.30;;
6442;SDS011;3254;47.372;8.512;2023-08-06T03:22:31;2.50;;;1.50;;
6442;SDS011;3254;47.372;8.512;2023-08-06T03:24:57;1.97;;;1.10;;
6442;SDS011;3254;47.372;8.512;2023-08-06T03:27:24;2.40;;;1.47;;
6442;SDS011;3254;47.372;8.512;2023-08-06T03:29:49;1.50;;;1.30;;
6442;SDS011;3254;47.372;8.512;2023-08-06T03:32:15;2.30;;;1.33;;
6442;SDS011;3254;47.372;8.512;2023-08-06T03:34:41;1.47;;;1.37;;
6442;SDS011;3254;47.372;8.512;2023-08-06T03:37:06;2.30;;;1.13;;
6442;SDS011;3254;47.372;8.512;2023-08-06T03:39:32;1.77;;;1.50;;
6442;SDS011;3254;47.372;8.512;2023-08-06T03:41:58;1.63;;;1.47;;
6442;SDS011;3254;47.372;8.512;2023-08-06T03:44:23;3.73;;;1.40;;
6442;SDS011;3254;47.372;8.512;2023-08-06T03:46:50;3.00;;;1.60;;
6442;SDS011;3254;47.372;8.512;2023-08-06T03:49:16;1.50;;;1.40;;
6442;SDS011;3254;47.372;8.512;2023-08-06T03:51:41;1.63;;;1.30;;
6442;SDS011;3254;47.372;8.512;2023-08-06T03:54:07;5.50;;;1.53;;
6442;SDS011;3254;47.372;8.512;2023-08-06T03:56:32;1.97;;;1.57;;
6442;SDS011;3254;47.372;8.512;2023-08-06T03:58:58;1.67;;;1.43;;
6442;SDS011;3254;47.372;8.512;2023-08-06T04:01:23;1.83;;;1.33;;
6442;SDS011;3254;47.372;8.512;2023-08-06T04:03:49;1.40;;;1.30;;
6442;SDS011;3254;47.372;8.512;2023-08-06T04:06:14;1.97;;;1.70;;
6442;SDS011;3254;47.372;8.512;2023-08-06T04:08:40;1.30;;;1.20;;
6442;SDS011;3254;47.372;8.512;2023-08-06T04:11:06;1.57;;;1.47;;
6442;SDS011;3254;47.372;8.512;2023-08-06T04:13:33;1.50;;;1.40;;
6442;SDS011;3254;47.372;8.512;2023-08-06T04:16:02;1.20;;;1.10;;
6442;SDS011;3254;47.372;8.512;2023-08-06T04:18:28;5.47;;;1.57;;
6442;SDS011;3254;47.372;8.512;2023-08-06T04:20:54;2.43;;;1.40;;
6442;SDS011;3254;47.372;8.512;2023-08-06T04:23:20;1.40;;;1.20;;
6442;SDS011;3254;47.372;8.512;2023-08-06T04:25:46;1.47;;;1.20;;
6442;SDS011;3254;47.372;8.512;2023-08-06T04:28:12;1.73;;;1.47;;
6442;SDS011;3254;47.372;8.512;2023-08-06T04:30:38;1.83;;;1.60;;
6442;SDS011;3254;47.372;8.512;2023-08-06T04:33:03;2.23;;;1.27;;
6442;SDS011;3254;47.372;8.512;2023-08-06T04:35:29;1.43;;;1.20;;
6442;SDS011;3254;47.372;8.512;2023-08-06T04:37:55;3.13;;;1.73;;
6442;SDS011;3254;47.372;8.512;2023-08-06T04:40:20;1.43;;;1.27;;
6442;SDS011;3254;47.372;8.512;2023-08-06T04:42:46;2.13;;;1.40;;
6442;SDS011;3254;47.372;8.512;2023-08-06T04:45:12;1.57;;;0.70;;
6442;SDS011;3254;47.372;8.512;2023-08-06T04:47:37;4.60;;;1.10;;
6442;SDS011;3254;47.372;8.512;2023-08-06T04:50:03;2.03;;;0.90;;
6442;SDS011;3254;47.372;8.512;2023-08-06T04:52:29;2.40;;;0.90;;
6442;SDS011;3254;47.372;8.512;2023-08-06T04:54:57;2.60;;;1.20;;
6442;SDS011;3254;47.372;8.512;2023-08-06T04:57:22;2.60;;;1.57;;
6442;SDS011;3254;47.372;8.512;2023-08-06T04:59:48;1.50;;;0.80;;
6442;SDS011;3254;47.372;8.512;2023-08-06T05:02:14;1.53;;;0.70;;
6442;SDS011;3254;47.372;8.512;2023-08-06T05:04:39;1.33;;;0.60;;
6442;SDS011;3254;47.372;8.512;2023-08-06T05:07:05;2.97;;;0.87;;
6442;SDS011;3254;47.372;8.512;2023-08-06T05:09:31;2.63;;;0.80;;
6442;SDS011;3254;47.372;8.512;2023-08-06T05:11:57;2.17;;;0.80;;
6442;SDS011;3254;47.372;8.512;2023-08-06T05:14:25;1.77;;;0.57;;
6442;SDS011;3254;47.372;8.512;2023-08-06T05:16:51;1.60;;;0.70;;
6442;SDS011;3254;47.372;8.512;2023-08-06T05:19:17;3.00;;;0.70;;
6442;SDS011;3254;47.372;8.512;2023-08-06T05:21:43;1.40;;;0.80;;
6442;SDS011;3254;47.372;8.512;2023-08-06T05:24:09;1.90;;;1.00;;
6442;SDS011;3254;47.372;8.512;2023-08-06T05:26:35;3.13;;;1.23;;
6442;SDS011;3254;47.372;8.512;2023-08-06T05:29:01;2.17;;;0.70;;
6442;SDS011;3254;47.372;8.512;2023-08-06T05:31:26;1.60;;;0.80;;
6442;SDS011;3254;47.372;8.512;2023-08-06T05:33:54;1.00;;;0.90;;
6442;SDS011;3254;47.372;8.512;2023-08-06T05:36:20;5.90;;;0.70;;
6442;SDS011;3254;47.372;8.512;2023-08-06T05:38:46;2.80;;;0.80;;
6442;SDS011;3254;47.372;8.512;2023-08-06T05:41:13;2.23;;;0.80;;
6442;SDS011;3254;47.372;8.512;2023-08-06T05:43:38;3.00;;;0.63;;
6442;SDS011;3254;47.372;8.512;2023-08-06T05:46:04;1.80;;;1.03;;
6442;SDS011;3254;47.372;8.512;2023-08-06T05:48:29;1.50;;;0.80;;
6442;SDS011;3254;47.372;8.512;2023-08-06T05:50:55;3.80;;;0.77;;
6442;SDS011;3254;47.372;8.512;2023-08-06T05:53:21;2.30;;;0.80;;
6442;SDS011;3254;47.372;8.512;2023-08-06T05:55:48;3.30;;;1.00;;
6442;SDS011;3254;47.372;8.512;2023-08-06T05:58:14;3.53;;;1.00;;
6442;SDS011;3254;47.372;8.512;2023-08-06T06:00:40;5.00;;;0.70;;
6442;SDS011;3254;47.372;8.512;2023-08-06T06:03:07;1.27;;;0.60;;
6442;SDS011;3254;47.372;8.512;2023-08-06T06:05:32;2.07;;;0.57;;
6442;SDS011;3254;47.372;8.512;2023-08-06T06:07:58;4.93;;;1.67;;
6442;SDS011;3254;47.372;8.512;2023-08-06T06:10:23;1.70;;;0.90;;
6442;SDS011;3254;47.372;8.512;2023-08-06T06:12:49;0.70;;;0.40;;
6442;SDS011;3254;47.372;8.512;2023-08-06T06:15:16;0.70;;;0.53;;
6442;SDS011;3254;47.372;8.512;2023-08-06T06:17:41;1.30;;;0.87;;
6442;SDS011;3254;47.372;8.512;2023-08-06T06:20:08;1.27;;;0.53;;
6442;SDS011;3254;47.372;8.512;2023-08-06T06:22:34;0.80;;;0.50;;
6442;SDS011;3254;47.372;8.512;2023-08-06T06:24:59;0.87;;;0.60;;
6442;SDS011;3254;47.372;8.512;2023-08-06T06:27:26;1.77;;;0.97;;
6442;SDS011;3254;47.372;8.512;2023-08-06T06:29:52;2.13;;;0.87;;
6442;SDS011;3254;47.372;8.512;2023-08-06T06:32:19;2.43;;;0.90;;
6442;SDS011;3254;47.372;8.512;2023-08-06T06:34:45;1.53;;;0.77;;
6442;SDS011;3254;47.372;8.512;2023-08-06T06:37:12;0.87;;;0.80;;
6442;SDS011;3254;47.372;8.512;2023-08-06T06:39:41;2.00;;;1.03;;
6442;SDS011;3254;47.372;8.512;2023-08-06T06:42:07;1.77;;;0.70;;
6442;SDS011;3254;47.372;8.512;2023-08-06T06:44:33;1.50;;;0.53;;
6442;SDS011;3254;47.372;8.512;2023-08-06T06:46:59;1.53;;;0.60;;
6442;SDS011;3254;47.372;8.512;2023-08-06T06:49:24;3.83;;;1.03;;
6442;SDS011;3254;47.372;8.512;2023-08-06T06:51:50;3.60;;;0.80;;
6442;SDS011;3254;47.372;8.512;2023-08-06T06:54:16;3.10;;;0.73;;
6442;SDS011;3254;47.372;8.512;2023-08-06T06:56:42;3.80;;;0.60;;
6442;SDS011;3254;47.372;8.512;2023-08-06T06:59:08;2.43;;;0.73;;
6442;SDS011;3254;47.372;8.512;2023-08-06T07:01:34;4.00;;;0.87;;
6442;SDS011;3254;47.372;8.512;2023-08-06T07:04:01;0.80;;;0.50;;
6442;SDS011;3254;47.372;8.512;2023-08-06T07:06:29;1.33;;;0.60;;
6442;SDS011;3254;47.372;8.512;2023-08-06T07:08:56;1.77;;;0.53;;
6442;SDS011;3254;47.372;8.512;2023-08-06T07:11:21;2.60;;;0.60;;
6442;SDS011;3254;47.372;8.512;2023-08-06T07:13:47;3.80;;;1.20;;
6442;SDS011;3254;47.372;8.512;2023-08-06T07:16:15;1.13;;;0.57;;
6442;SDS011;3254;47.372;8.512;2023-08-06T07:18:40;1.27;;;0.53;;
6442;SDS011;3254;47.372;8.512;2023-08-06T07:21:06;1.30;;;0.60;;
6442;SDS011;3254;47.372;8.512;2023-08-06T07:23:32;0.97;;;0.70;;
6442;SDS011;3254;47.372;8.512;2023-08-06T07:25:58;2.83;;;0.60;;
6442;SDS011;3254;47.372;8.512;2023-08-06T07:28:24;1.07;;;0.60;;
6442;SDS011;3254;47.372;8.512;2023-08-06T07:30:49;1.23;;;0.60;;
6442;SDS011;3254;47.372;8.512;2023-08-06T07:33:15;1.60;;;0.47;;
6442;SDS011;3254;47.372;8.512;2023-08-06T07:35:42;2.20;;;0.60;;
6442;SDS011;3254;47.372;8.512;2023-08-06T07:38:09;0.83;;;0.60;;
6442;SDS011;3254;47.372;8.512;2023-08-06T07:40:35;2.17;;;0.70;;
6442;SDS011;3254;47.372;8.512;2023-08-06T07:43:02;1.43;;;0.40;;
6442;SDS011;3254;47.372;8.512;2023-08-06T07:45:31;1.07;;;0.60;;
6442;SDS011;3254;47.372;8.512;2023-08-06T07:47:58;0.70;;;0.40;;
6442;SDS011;3254;47.372;8.512;2023-08-06T07:50:24;2.60;;;0.67;;
6442;SDS011;3254;47.372;8.512;2023-08-06T07:52:50;2.20;;;0.70;;
6442;SDS011;3254;47.372;8.512;2023-08-06T07:55:15;1.00;;;0.90;;
6442;SDS011;3254;47.372;8.512;2023-08-06T07:57:41;1.80;;;0.63;;
6442;SDS011;3254;47.372;8.512;2023-08-06T08:00:07;1.73;;;0.77;;
6442;SDS011;3254;47.372;8.512;2023-08-06T08:02:34;2.90;;;0.90;;
6442;SDS011;3254;47.372;8.512;2023-08-06T08:05:00;1.37;;;0.90;;
6442;SDS011;3254;47.372;8.512;2023-08-06T08:07:26;2.90;;;0.73;;
6442;SDS011;3254;47.372;8.512;2023-08-06T08:09:54;2.10;;;1.73;;
6442;SDS011;3254;47.372;8.512;2023-08-06T08:12:19;4.13;;;0.70;;
6442;SDS011;3254;47.372;8.512;2023-08-06T08:14:47;1.83;;;1.23;;
6442;SDS011;3254;47.372;8.512;2023-08-06T08:17:13;1.23;;;0.60;;
6442;SDS011;3254;47.372;8.512;2023-08-06T08:19:39;3.03;;;0.60;;
6442;SDS011;3254;47.372;8.512;2023-08-06T08:22:06;2.83;;;0.63;;
6442;SDS011;3254;47.372;8.512;2023-08-06T08:24:31;4.20;;;0.67;;
6442;SDS011;3254;47.372;8.512;2023-08-06T08:26:57;1.03;;;0.60;;
6442;SDS011;3254;47.372;8.512;2023-08-06T08:29:22;1.00;;;0.50;;
6442;SDS011;3254;47.372;8.512;2023-08-06T08:31:48;2.50;;;0.90;;
6442;SDS011;3254;47.372;8.512;2023-08-06T08:34:15;2.17;;;0.80;;
6442;SDS011;3254;47.372;8.512;2023-08-06T08:36:43;3.80;;;1.03;;
6442;SDS011;3254;47.372;8.512;2023-08-06T08:39:11;2.50;;;0.40;;
6442;SDS011;3254;47.372;8.512;2023-08-06T08:41:37;1.23;;;0.77;;
6442;SDS011;3254;47.372;8.512;2023-08-06T08:44:04;7.23;;;0.80;;
6442;SDS011;3254;47.372;8.512;2023-08-06T08:46:35;1.10;;;0.60;;
6442;SDS011;3254;47.372;8.512;2023-08-06T08:49:03;1.67;;;0.50;;
6442;SDS011;3254;47.372;8.512;2023-08-06T08:51:29;1.07;;;0.80;;
6442;SDS011;3254;47.372;8.512;2023-08-06T08:53:56;2.97;;;1.17;;
6442;SDS011;3254;47.372;8.512;2023-08-06T08:56:22;3.70;;;0.77;;
6442;SDS011;3254;47.372;8.512;2023-08-06T08:58:49;2.40;;;1.00;;
6442;SDS011;3254;47.372;8.512;2023-08-06T09:01:16;2.87;;;0.73;;
6442;SDS011;3254;47.372;8.512;2023-08-06T09:03:42;0.80;;;0.60;;
6442;SDS011;3254;47.372;8.512;2023-08-06T09:06:09;3.73;;;0.67;;
6442;SDS011;3254;47.372;8.512;2023-08-06T09:08:40;0.70;;;0.43;;
6442;SDS011;3254;47.372;8.512;2023-08-06T09:11:13;3.50;;;0.80;;
6442;SDS011;3254;47.372;8.512;2023-08-06T09:13:43;0.80;;;0.50;;
6442;SDS011;3254;47.372;8.512;2023-08-06T09:16:11;3.20;;;0.90;;
6442;SDS011;3254;47.372;8.512;2023-08-06T09:18:42;4.23;;;1.13;;
6442;SDS011;3254;47.372;8.512;2023-08-06T09:21:13;2.57;;;0.80;;
6442;SDS011;3254;47.372;8.512;2023-08-06T09:23:42;2.90;;;0.90;;
6442;SDS011;3254;47.372;8.512;2023-08-06T09:26:11;1.90;;;0.90;;
6442;SDS011;3254;47.372;8.512;2023-08-06T09:28:39;1.40;;;0.70;;
6442;SDS011;3254;47.372;8.512;2023-08-06T09:31:09;1.47;;;0.83;;
6442;SDS011;3254;47.372;8.512;2023-08-06T09:33:38;1.00;;;0.70;;
6442;SDS011;3254;47.372;8.512;2023-08-06T09:36:07;0.73;;;0.50;;
6442;SDS011;3254;47.372;8.512;2023-08-06T09:38:39;0.80;;;0.50;;
6442;SDS011;3254;47.372;8.512;2023-08-06T09:41:05;3.17;;;0.77;;
6442;SDS011;3254;47.372;8.512;2023-08-06T09:43:44;1.27;;;0.50;;
6442;SDS011;3254;47.372;8.512;2023-08-06T09:46:13;2.80;;;0.80;;
6442;SDS011;3254;47.372;8.512;2023-08-06T09:48:41;0.73;;;0.40;;
6442;SDS011;3254;47.372;8.512;2023-08-06T09:51:11;1.47;;;0.50;;
6442;SDS011;3254;47.372;8.512;2023-08-06T09:53:38;0.70;;;0.40;;
6442;SDS011;3254;47.372;8.512;2023-08-06T09:56:05;0.70;;;0.40;;
6442;SDS011;3254;47.372;8.512;2023-08-06T09:58:31;0.70;;;0.30;;
6442;SDS011;3254;47.372;8.512;2023-08-06T10:00:58;0.70;;;0.37;;
6442;SDS011;3254;47.372;8.512;2023-08-06T10:03:25;0.90;;;0.47;;
6442;SDS011;3254;47.372;8.512;2023-08-06T10:05:51;0.80;;;0.50;;
6442;SDS011;3254;47.372;8.512;2023-08-06T10:08:17;0.80;;;0.50;;
6442;SDS011;3254;47.372;8.512;2023-08-06T10:10:42;0.63;;;0.40;;
6442;SDS011;3254;47.372;8.512;2023-08-06T10:13:09;1.00;;;0.60;;
6442;SDS011;3254;47.372;8.512;2023-08-06T10:15:39;1.27;;;0.40;;
6442;SDS011;3254;47.372;8.512;2023-08-06T10:18:05;1.10;;;0.40;;
6442;SDS011;3254;47.372;8.512;2023-08-06T10:20:36;10.13;;;0.40;;
6442;SDS011;3254;47.372;8.512;2023-08-06T10:23:02;1.43;;;0.40;;
6442;SDS011;3254;47.372;8.512;2023-08-06T10:25:33;1.47;;;0.53;;
6442;SDS011;3254;47.372;8.512;2023-08-06T10:27:59;1.23;;;0.60;;
6442;SDS011;3254;47.372;8.512;2023-08-06T10:30:32;0.80;;;0.50;;
6442;SDS011;3254;47.372;8.512;2023-08-06T10:33:02;0.90;;;0.40;;
6442;SDS011;3254;47.372;8.512;2023-08-06T10:38:21;0.80;;;0.63;;
6442;SDS011;3254;47.372;8.512;2023-08-06T10:40:48;1.83;;;0.60;;
6442;SDS011;3254;47.372;8.512;2023-08-06T10:43:31;0.60;;;0.40;;
6442;SDS011;3254;47.372;8.512;2023-08-06T10:46:49;1.20;;;1.10;;
6442;SDS011;3254;47.372;8.512;2023-08-06T10:49:15;0.70;;;0.50;;
6442;SDS011;3254;47.372;8.512;2023-08-06T10:51:47;3.20;;;0.70;;
6442;SDS011;3254;47.372;8.512;2023-08-06T10:54:12;0.70;;;0.40;;
6442;SDS011;3254;47.372;8.512;2023-08-06T10:56:41;0.90;;;0.50;;
6442;SDS011;3254;47.372;8.512;2023-08-06T10:59:07;0.60;;;0.37;;
6442;SDS011;3254;47.372;8.512;2023-08-06T11:01:35;0.80;;;0.50;;
6442;SDS011;3254;47.372;8.512;2023-08-06T11:04:01;0.70;;;0.40;;
6442;SDS011;3254;47.372;8.512;2023-08-06T11:06:28;0.70;;;0.40;;
6442;SDS011;3254;47.372;8.512;2023-08-06T11:08:53;0.80;;;0.40;;
6442;SDS011;3254;47.372;8.512;2023-08-06T11:11:20;1.30;;;0.40;;
6442;SDS011;3254;47.372;8.512;2023-08-06T11:13:48;0.87;;;0.40;;
6442;SDS011;3254;47.372;8.512;2023-08-06T11:16:15;0.70;;;0.50;;
6442;SDS011;3254;47.372;8.512;2023-08-06T11:18:45;0.80;;;0.40;;
6442;SDS011;3254;47.372;8.512;2023-08-06T11:21:12;0.83;;;0.50;;
6442;SDS011;3254;47.372;8.512;2023-08-06T11:23:38;1.00;;;0.60;;
6442;SDS011;3254;47.372;8.512;2023-08-06T11:26:05;1.07;;;1.00;;
6442;SDS011;3254;47.372;8.512;2023-08-06T11:28:32;3.27;;;0.40;;
6442;SDS011;3254;47.372;8.512;2023-08-06T11:30:58;1.30;;;0.43;;
6442;SDS011;3254;47.372;8.512;2023-08-06T11:33:27;0.80;;;0.60;;
6442;SDS011;3254;47.372;8.512;2023-08-06T11:35:57;0.87;;;0.80;;
6442;SDS011;3254;47.372;8.512;2023-08-06T11:38:27;0.70;;;0.43;;
6442;SDS011;3254;47.372;8.512;2023-08-06T11:40:53;1.43;;;0.50;;
6442;SDS011;3254;47.372;8.512;2023-08-06T11:43:20;1.20;;;0.60;;
6442;SDS011;3254;47.372;8.512;2023-08-06T11:45:47;1.63;;;1.00;;
6442;SDS011;3254;47.372;8.512;2023-08-06T11:48:15;1.57;;;0.80;;
6442;SDS011;3254;47.372;8.512;2023-08-06T11:50:42;0.70;;;0.50;;
6442;SDS011;3254;47.372;8.512;2023-08-06T11:53:07;0.90;;;0.57;;
6442;SDS011;3254;47.372;8.512;2023-08-06T11:55:55;0.70;;;0.50;;
6442;SDS011;3254;47.372;8.512;2023-08-06T11:58:21;0.90;;;0.60;;
6442;SDS011;3254;47.372;8.512;2023-08-06T12:00:48;1.10;;;0.60;;
6442;SDS011;3254;47.372;8.512;2023-08-06T12:03:13;1.20;;;0.50;;
6442;SDS011;3254;47.372;8.512;2023-08-06T12:05:40;0.80;;;0.50;;
6442;SDS011;3254;47.372;8.512;2023-08-06T12:08:06;0.70;;;0.50;;
6442;SDS011;3254;47.372;8.512;2023-08-06T12:10:34;0.70;;;0.60;;
6442;SDS011;3254;47.372;8.512;2023-08-06T12:13:00;1.07;;;0.50;;
6442;SDS011;3254;47.372;8.512;2023-08-06T12:15:25;0.80;;;0.50;;
6442;SDS011;3254;47.372;8.512;2023-08-06T12:17:51;2.03;;;1.17;;
6442;SDS011;3254;47.372;8.512;2023-08-06T12:20:17;0.97;;;0.40;;
6442;SDS011;3254;47.372;8.512;2023-08-06T12:22:42;2.43;;;0.50;;
6442;SDS011;3254;47.372;8.512;2023-08-06T12:25:09;0.60;;;0.30;;
6442;SDS011;3254;47.372;8.512;2023-08-06T12:27:38;0.63;;;0.40;;
6442;SDS011;3254;47.372;8.512;2023-08-06T12:30:05;0.60;;;0.40;;
6442;SDS011;3254;47.372;8.512;2023-08-06T12:32:31;0.70;;;0.40;;
6442;SDS011;3254;47.372;8.512;2023-08-06T12:35:00;0.67;;;0.40;;
6442;SDS011;3254;47.372;8.512;2023-08-06T12:37:26;0.60;;;0.30;;
6442;SDS011;3254;47.372;8.512;2023-08-06T12:39:52;0.70;;;0.40;;
6442;SDS011;3254;47.372;8.512;2023-08-06T12:42:18;0.83;;;0.40;;
6442;SDS011;3254;47.372;8.512;2023-08-06T12:44:45;1.43;;;0.30;;
6442;SDS011;3254;47.372;8.512;2023-08-06T12:47:11;0.70;;;0.30;;
6442;SDS011;3254;47.372;8.512;2023-08-06T12:49:36;1.00;;;0.80;;
6442;SDS011;3254;47.372;8.512;2023-08-06T12:52:02;0.97;;;0.47;;
6442;SDS011;3254;47.372;8.512;2023-08-06T12:54:31;0.70;;;0.40;;
6442;SDS011;3254;47.372;8.512;2023-08-06T12:57:01;0.60;;;0.40;;
6442;SDS011;3254;47.372;8.512;2023-08-06T12:59:28;0.83;;;0.50;;
6442;SDS011;3254;47.372;8.512;2023-08-06T13:01:54;1.67;;;0.50;;
6442;SDS011;3254;47.372;8.512;2023-08-06T13:04:20;0.70;;;0.50;;
6442;SDS011;3254;47.372;8.512;2023-08-06T13:06:45;0.70;;;0.40;;
6442;SDS011;3254;47.372;8.512;2023-08-06T13:09:11;0.70;;;0.40;;
6442;SDS011;3254;47.372;8.512;2023-08-06T13:11:38;0.70;;;0.40;;
6442;SDS011;3254;47.372;8.512;2023-08-06T13:14:05;2.50;;;0.70;;
6442;SDS011;3254;47.372;8.512;2023-08-06T13:16:36;0.80;;;0.40;;
6442;SDS011;3254;47.372;8.512;2023-08-06T13:19:03;0.70;;;0.47;;
6442;SDS011;3254;47.372;8.512;2023-08-06T13:22:03;0.80;;;0.50;;
6442;SDS011;3254;47.372;8.512;2023-08-06T13:24:27;0.90;;;0.50;;
6442;SDS011;3254;47.372;8.512;2023-08-06T13:26:53;0.80;;;0.60;;
6442;SDS011;3254;47.372;8.512;2023-08-06T13:29:20;1.40;;;0.67;;
6442;SDS011;3254;47.372;8.512;2023-08-06T13:31:46;0.93;;;0.40;;
6442;SDS011;3254;47.372;8.512;2023-08-06T13:34:12;0.73;;;0.50;;
6442;SDS011;3254;47.372;8.512;2023-08-06T13:36:38;1.47;;;0.50;;
6442;SDS011;3254;47.372;8.512;2023-08-06T13:39:03;0.80;;;0.60;;
6442;SDS011;3254;47.372;8.512;2023-08-06T13:41:30;0.70;;;0.60;;
6442;SDS011;3254;47.372;8.512;2023-08-06T13:43:56;0.70;;;0.40;;
6442;SDS011;3254;47.372;8.512;2023-08-06T13:46:21;1.00;;;0.50;;
6442;SDS011;3254;47.372;8.512;2023-08-06T13:48:47;0.80;;;0.67;;
6442;SDS011;3254;47.372;8.512;2023-08-06T13:51:16;0.90;;;0.77;;
6442;SDS011;3254;47.372;8.512;2023-08-06T13:53:49;0.70;;;0.30;;
6442;SDS011;3254;47.372;8.512;2023-08-06T13:56:14;0.90;;;0.53;;
6442;SDS011;3254;47.372;8.512;2023-08-06T13:58:42;0.80;;;0.50;;
6442;SDS011;3254;47.372;8.512;2023-08-06T14:01:09;1.37;;;1.27;;
6442;SDS011;3254;47.372;8.512;2023-08-06T14:03:35;0.70;;;0.37;;
6442;SDS011;3254;47.372;8.512;2023-08-06T14:06:01;1.03;;;0.40;;
6442;SDS011;3254;47.372;8.512;2023-08-06T14:08:26;1.63;;;1.53;;
6442;SDS011;3254;47.372;8.512;2023-08-06T14:10:52;0.70;;;0.47;;
6442;SDS011;3254;47.372;8.512;2023-08-06T14:13:18;0.70;;;0.40;;
6442;SDS011;3254;47.372;8.512;2023-08-06T14:15:44;0.83;;;0.60;;
6442;SDS011;3254;47.372;8.512;2023-08-06T14:18:12;1.27;;;0.40;;
6442;SDS011;3254;47.372;8.512;2023-08-06T14:20:42;1.97;;;1.87;;
6442;SDS011;3254;47.372;8.512;2023-08-06T14:23:11;0.70;;;0.50;;
6442;SDS011;3254;47.372;8.512;2023-08-06T14:25:38;2.23;;;2.13;;
6442;SDS011;3254;47.372;8.512;2023-08-06T14:28:04;1.43;;;0.70;;
6442;SDS011;3254;47.372;8.512;2023-08-06T14:30:31;0.80;;;0.60;;
6442;SDS011;3254;47.372;8.512;2023-08-06T14:32:57;1.20;;;1.10;;
6442;SDS011;3254;47.372;8.512;2023-08-06T14:35:24;2.90;;;0.60;;
6442;SDS011;3254;47.372;8.512;2023-08-06T14:37:51;0.90;;;0.60;;
6442;SDS011;3254;47.372;8.512;2023-08-06T14:40:17;0.80;;;0.60;;
6442;SDS011;3254;47.372;8.512;2023-08-06T14:42:42;1.10;;;0.70;;
6442;SDS011;3254;47.372;8.512;2023-08-06T14:45:08;2.23;;;0.70;;
6442;SDS011;3254;47.372;8.512;2023-08-06T14:47:34;0.80;;;0.70;;
6442;SDS011;3254;47.372;8.512;2023-08-06T14:49:59;5.47;;;0.70;;
6442;SDS011;3254;47.372;8.512;2023-08-06T14:52:25;1.63;;;0.73;;
6442;SDS011;3254;47.372;8.512;2023-08-06T14:54:51;4.53;;;2.60;;
6442;SDS011;3254;47.372;8.512;2023-08-06T14:57:17;0.70;;;0.60;;
6442;SDS011;3254;47.372;8.512;2023-08-06T14:59:43;1.93;;;1.37;;
6442;SDS011;3254;47.372;8.512;2023-08-06T15:02:08;1.10;;;1.00;;
6442;SDS011;3254;47.372;8.512;2023-08-06T15:04:35;0.83;;;0.80;;
6442;SDS011;3254;47.372;8.512;2023-08-06T15:07:01;1.00;;;0.70;;
6442;SDS011;3254;47.372;8.512;2023-08-06T15:09:26;1.00;;;0.90;;
6442;SDS011;3254;47.372;8.512;2023-08-06T15:11:52;1.37;;;1.00;;
6442;SDS011;3254;47.372;8.512;2023-08-06T15:14:19;0.80;;;0.60;;
6442;SDS011;3254;47.372;8.512;2023-08-06T15:16:46;1.77;;;0.83;;
6442;SDS011;3254;47.372;8.512;2023-08-06T15:19:12;0.80;;;0.80;;